sensor_id;sensor_type;location;lat;lon;timestamp;pressure;altitude;pressure_sealevel;temperature;humidity
30554;BME280;17335;50.720;7.452;2023-03-26T00:01:17;98479.47;;;8.51;100.00
30554;BME280;17335;50.720;7.452;2023-03-26T00:03:46;98481.19;;;8.42;100.00
30554;BME280;17335;50.720;7.452;2023-03-26T00:06:27;98475.84;;;8.42;100.00
30554;BME280;17335;50.720;7.452;2023-03-26T00:08:56;98488.34;;;8.51;100.00
30554;BME280;17335;50.720;7.452;2023-03-26T00:11:25;98481.44;;;8.49;100.00
30554;BME280;17335;50.720;7.452;2023-03-26T00:13:53;98489.91;;;8.44;100.00
30554;BME280;17335;50.720;7.452;2023-03-26T00:16:23;98483.97;;;8.50;100.00
30554;BME280;17335;50.720;7.452;2023-03-26T00:18:52;98489.50;;;8.39;100.00
30554;BME280;17335;50.720;7.452;2023-03-26T00:21:21;98489.63;;;8.47;100.00
30554;BME280;17335;50.720;7.452;2023-03-26T00:23:57;98491.03;;;8.51;100.00
30554;BME280;17335;50.720;7.452;2023-03-26T00:26:26;98481.97;;;8.52;100.00
30554;BME280;17335;50.720;7.452;2023-03-26T00:28:52;98487.03;;;8.55;100.00
30554;BME280;17335;50.720;7.452;2023-03-26T00:31:20;98486.44;;;8.61;100.00
30554;BME280;17335;50.720;7.452;2023-03-26T00:33:46;98483.69;;;8.53;100.00
30554;BME280;17335;50.720;7.452;2023-03-26T00:36:15;98486.72;;;8.58;100.00
30554;BME280;17335;50.720;7.452;2023-03-26T00:38:44;98482.84;;;8.53;100.00
30554;BME280;17335;50.720;7.452;2023-03-26T00:41:15;98480.91;;;8.45;100.00
30554;BME280;17335;50.720;7.452;2023-03-26T00:43:44;98479.31;;;8.52;100.00
30554;BME280;17335;50.720;7.452;2023-03-26T00:46:12;98482.47;;;8.48;100.00
30554;BME280;17335;50.720;7.452;2023-03-26T00:48:40;98476.25;;;8.47;100.00
30554;BME280;17335;50.720;7.452;2023-03-26T00:51:15;98481.19;;;8.42;100.00
30554;BME280;17335;50.720;7.452;2023-03-26T00:53:47;98478.94;;;8.47;100.00
30554;BME280;17335;50.720;7.452;2023-03-26T00:56:13;98472.75;;;8.47;100.00
30554;BME280;17335;50.720;7.452;2023-03-26T00:58:40;98471.13;;;8.36;100.00
30554;BME280;17335;50.720;7.452;2023-03-26T01:01:11;98467.81;;;8.42;100.00
30554;BME280;17335;50.720;7.452;2023-03-26T01:03:43;98462.88;;;8.47;100.00
30554;BME280;17335;50.720;7.452;2023-03-26T01:06:31;98456.09;;;8.53;100.00
30554;BME280;17335;50.720;7.452;2023-03-26T01:09:15;98456.47;;;8.58;100.00
30554;BME280;17335;50.720;7.452;2023-03-26T01:11:43;98447.84;;;8.46;100.00
30554;BME280;17335;50.720;7.452;2023-03-26T01:14:13;98446.84;;;8.47;100.00
30554;BME280;17335;50.720;7.452;2023-03-26T01:16:46;98440.13;;;8.43;100.00
30554;BME280;17335;50.720;7.452;2023-03-26T01:19:29;98442.09;;;8.41;100.00
30554;BME280;17335;50.720;7.452;2023-03-26T01:22:01;98441.69;;;8.36;100.00
30554;BME280;17335;50.720;7.452;2023-03-26T01:24:28;98433.34;;;8.39;100.00
30554;BME280;17335;50.720;7.452;2023-03-26T01:29:53;98436.19;;;8.37;100.00
30554;BME280;17335;50.720;7.452;2023-03-26T01:40:45;98424.72;;;8.09;100.00
30554;BME280;17335;50.720;7.452;2023-03-26T01:46:05;98420.72;;;7.95;100.00
30554;BME280;17335;50.720;7.452;2023-03-26T01:48:37;98427.81;;;7.86;100.00
30554;BME280;17335;50.720;7.452;2023-03-26T01:51:06;98427.53;;;7.89;100.00
30554;BME280;17335;50.720;7.452;2023-03-26T01:53:37;98419.91;;;7.95;100.00
30554;BME280;17335;50.720;7.452;2023-03-26T01:56:11;98416.00;;;7.89;100.00
30554;BME280;17335;50.720;7.452;2023-03-26T01:59:40;98409.22;;;7.95;100.00
30554;BME280;17335;50.720;7.452;2023-03-26T02:02:17;98413.00;;;7.92;100.00
30554;BME280;17335;50.720;7.452;2023-03-26T02:07:51;98398.53;;;7.95;100.00
30554;BME280;17335;50.720;7.452;2023-03-26T02:10:29;98401.41;;;7.83;100.00
30554;BME280;17335;50.720;7.452;2023-03-26T02:12:57;98392.16;;;7.78;100.00
30554;BME280;17335;50.720;7.452;2023-03-26T02:15:24;98394.75;;;7.69;100.00
30554;BME280;17335;50.720;7.452;2023-03-26T02:17:50;98390.31;;;7.60;100.00
30554;BME280;17335;50.720;7.452;2023-03-26T02:20:19;98390.75;;;7.56;100.00
30554;BME280;17335;50.720;7.452;2023-03-26T02:22:46;98388.66;;;7.49;100.00
30554;BME280;17335;50.720;7.452;2023-03-26T02:25:16;98383.13;;;7.33;100.00
30554;BME280;17335;50.720;7.452;2023-03-26T02:27:44;98382.84;;;7.36;100.00
30554;BME280;17335;50.720;7.452;2023-03-26T02:30:15;98370.81;;;7.22;100.00
30554;BME280;17335;50.720;7.452;2023-03-26T02:32:42;98370.81;;;7.22;100.00
30554;BME280;17335;50.720;7.452;2023-03-26T02:35:10;98362.22;;;7.28;100.00
30554;BME280;17335;50.720;7.452;2023-03-26T02:37:38;98363.63;;;7.32;100.00
30554;BME280;17335;50.720;7.452;2023-03-26T02:40:05;98369.22;;;7.39;100.00
30554;BME280;17335;50.720;7.452;2023-03-26T02:42:36;98355.25;;;7.45;100.00
30554;BME280;17335;50.720;7.452;2023-03-26T02:45:05;98350.72;;;7.46;100.00
30554;BME280;17335;50.720;7.452;2023-03-26T02:47:31;98352.19;;;7.40;100.00
30554;BME280;17335;50.720;7.452;2023-03-26T02:49:59;98342.91;;;7.44;100.00
30554;BME280;17335;50.720;7.452;2023-03-26T02:52:26;98343.59;;;7.46;100.00
30554;BME280;17335;50.720;7.452;2023-03-26T02:54:53;98345.78;;;7.51;100.00
30554;BME280;17335;50.720;7.452;2023-03-26T02:57:22;98343.97;;;7.51;100.00
30554;BME280;17335;50.720;7.452;2023-03-26T02:59:48;98337.22;;;7.47;100.00
30554;BME280;17335;50.720;7.452;2023-03-26T03:02:15;98332.38;;;7.61;100.00
30554;BME280;17335;50.720;7.452;2023-03-26T03:04:44;98330.69;;;7.60;100.00
30554;BME280;17335;50.720;7.452;2023-03-26T03:07:10;98326.50;;;7.57;100.00
30554;BME280;17335;50.720;7.452;2023-03-26T03:09:39;98328.59;;;7.63;100.00
30554;BME280;17335;50.720;7.452;2023-03-26T03:12:06;98328.97;;;7.68;100.00
30554;BME280;17335;50.720;7.452;2023-03-26T03:14:32;98326.44;;;7.67;100.00
30554;BME280;17335;50.720;7.452;2023-03-26T03:16:59;98318.72;;;7.64;100.00
30554;BME280;17335;50.720;7.452;2023-03-26T03:19:26;98312.69;;;7.62;100.00
30554;BME280;17335;50.720;7.452;2023-03-26T03:21:53;98303.81;;;7.61;100.00
30554;BME280;17335;50.720;7.452;2023-03-26T03:24:19;98307.66;;;7.59;100.00
30554;BME280;17335;50.720;7.452;2023-03-26T03:26:46;98300.91;;;7.55;100.00
30554;BME280;17335;50.720;7.452;2023-03-26T03:29:13;98298.97;;;7.57;100.00
30554;BME280;17335;50.720;7.452;2023-03-26T03:31:39;98300.09;;;7.54;100.00
30554;BME280;17335;50.720;7.452;2023-03-26T03:34:06;98293.91;;;7.54;100.00
30554;BME280;17335;50.720;7.452;2023-03-26T03:36:33;98293.25;;;7.51;100.00
30554;BME280;17335;50.720;7.452;2023-03-26T03:39:04;98288.78;;;7.42;100.00
30554;BME280;17335;50.720;7.452;2023-03-26T03:41:30;98290.78;;;7.40;100.00
30554;BME280;17335;50.720;7.452;2023-03-26T03:43:57;98285.22;;;7.51;100.00
30554;BME280;17335;50.720;7.452;2023-03-26T03:46:25;98285.38;;;7.50;100.00
30554;BME280;17335;50.720;7.452;2023-03-26T03:48:51;98278.81;;;7.44;100.00
30554;BME280;17335;50.720;7.452;2023-03-26T03:51:18;98278.81;;;7.44;100.00
30554;BME280;17335;50.720;7.452;2023-03-26T03:53:44;98275.56;;;7.41;100.00
30554;BME280;17335;50.720;7.452;2023-03-26T03:56:12;98266.16;;;7.46;100.00
30554;BME280;17335;50.720;7.452;2023-03-26T03:58:40;98261.56;;;7.39;100.00
30554;BME280;17335;50.720;7.452;2023-03-26T04:01:07;98256.13;;;7.30;100.00
30554;BME280;17335;50.720;7.452;2023-03-26T04:03:33;98258.50;;;7.33;100.00
30554;BME280;17335;50.720;7.452;2023-03-26T04:06:07;98255.47;;;7.46;100.00
30554;BME280;17335;50.720;7.452;2023-03-26T04:08:36;98255.13;;;7.49;100.00
30554;BME280;17335;50.720;7.452;2023-03-26T04:11:03;98249.59;;;7.43;100.00
30554;BME280;17335;50.720;7.452;2023-03-26T04:13:30;98251.94;;;7.46;100.00
30554;BME280;17335;50.720;7.452;2023-03-26T04:15:56;98238.38;;;7.39;100.00
30554;BME280;17335;50.720;7.452;2023-03-26T04:18:23;98243.72;;;7.39;100.00
30554;BME280;17335;50.720;7.452;2023-03-26T04:20:51;98237.13;;;7.33;100.00
30554;BME280;17335;50.720;7.452;2023-03-26T04:23:20;98235.22;;;7.44;100.00
30554;BME280;17335;50.720;7.452;2023-03-26T04:25:52;98229.50;;;7.39;100.00
30554;BME280;17335;50.720;7.452;2023-03-26T04:30:57;98221.41;;;7.30;100.00
30554;BME280;17335;50.720;7.452;2023-03-26T04:33:28;98216.25;;;7.29;100.00
30554;BME280;17335;50.720;7.452;2023-03-26T04:35:55;98203.34;;;7.24;100.00
30554;BME280;17335;50.720;7.452;2023-03-26T04:38:28;98196.41;;;7.31;100.00
30554;BME280;17335;50.720;7.452;2023-03-26T04:41:00;98192.50;;;7.44;100.00
30554;BME280;17335;50.720;7.452;2023-03-26T04:43:29;98197.78;;;7.36;100.00
30554;BME280;17335;50.720;7.452;2023-03-26T04:45:56;98193.28;;;7.36;100.00
30554;BME280;17335;50.720;7.452;2023-03-26T04:48:23;98191.69;;;7.43;100.00
30554;BME280;17335;50.720;7.452;2023-03-26T04:50:50;98191.97;;;7.40;100.00
30554;BME280;17335;50.720;7.452;2023-03-26T04:53:18;98181.38;;;7.30;100.00
30554;BME280;17335;50.720;7.452;2023-03-26T04:55:57;98177.19;;;7.28;100.00
30554;BME280;17335;50.720;7.452;2023-03-26T04:58:25;98172.97;;;7.25;100.00
30554;BME280;17335;50.720;7.452;2023-03-26T05:01:00;98173.38;;;7.12;100.00
30554;BME280;17335;50.720;7.452;2023-03-26T05:03:36;98175.28;;;7.20;100.00
30554;BME280;17335;50.720;7.452;2023-03-26T05:06:04;98171.53;;;7.13;100.00
30554;BME280;17335;50.720;7.452;2023-03-26T05:08:31;98169.41;;;7.17;100.00
30554;BME280;17335;50.720;7.452;2023-03-26T05:10:58;98160.63;;;7.06;100.00
30554;BME280;17335;50.720;7.452;2023-03-26T05:13:24;98166.44;;;7.02;100.00
30554;BME280;17335;50.720;7.452;2023-03-26T05:15:50;98153.53;;;6.97;100.00
30554;BME280;17335;50.720;7.452;2023-03-26T05:18:17;98140.88;;;6.99;100.00
30554;BME280;17335;50.720;7.452;2023-03-26T05:20:44;98148.22;;;6.97;100.00
30554;BME280;17335;50.720;7.452;2023-03-26T05:23:11;98138.59;;;7.04;100.00
30554;BME280;17335;50.720;7.452;2023-03-26T05:25:38;98138.13;;;6.91;100.00
30554;BME280;17335;50.720;7.452;2023-03-26T05:28:04;98134.34;;;6.93;100.00
30554;BME280;17335;50.720;7.452;2023-03-26T05:30:31;98140.19;;;6.97;100.00
30554;BME280;17335;50.720;7.452;2023-03-26T05:32:59;98133.75;;;7.00;100.00
30554;BME280;17335;50.720;7.452;2023-03-26T05:35:26;98133.03;;;6.98;100.00
30554;BME280;17335;50.720;7.452;2023-03-26T05:37:52;98128.03;;;6.94;100.00
30554;BME280;17335;50.720;7.452;2023-03-26T05:40:19;98123.50;;;6.95;100.00
30554;BME280;17335;50.720;7.452;2023-03-26T05:42:47;98115.59;;;7.03;100.00
30554;BME280;17335;50.720;7.452;2023-03-26T05:45:14;98112.41;;;7.00;100.00
30554;BME280;17335;50.720;7.452;2023-03-26T05:47:41;98099.59;;;7.03;100.00
30554;BME280;17335;50.720;7.452;2023-03-26T05:50:09;98107.81;;;6.92;100.00
30554;BME280;17335;50.720;7.452;2023-03-26T05:52:35;98097.81;;;6.94;100.00
30554;BME280;17335;50.720;7.452;2023-03-26T05:55:03;98105.00;;;6.93;100.00
30554;BME280;17335;50.720;7.452;2023-03-26T05:57:30;98109.16;;;6.96;100.00
30554;BME280;17335;50.720;7.452;2023-03-26T05:59:58;98116.19;;;6.97;100.00
30554;BME280;17335;50.720;7.452;2023-03-26T06:02:25;98107.34;;;6.97;100.00
30554;BME280;17335;50.720;7.452;2023-03-26T06:04:52;98119.53;;;6.99;100.00
30554;BME280;17335;50.720;7.452;2023-03-26T06:07:18;98125.88;;;6.98;100.00
30554;BME280;17335;50.720;7.452;2023-03-26T06:09:45;98116.28;;;7.05;100.00
30554;BME280;17335;50.720;7.452;2023-03-26T06:12:13;98112.06;;;6.85;100.00
30554;BME280;17335;50.720;7.452;2023-03-26T06:14:40;98113.34;;;6.81;100.00
30554;BME280;17335;50.720;7.452;2023-03-26T06:17:10;98114.22;;;6.81;100.00
30554;BME280;17335;50.720;7.452;2023-03-26T06:19:37;98103.69;;;6.80;100.00
30554;BME280;17335;50.720;7.452;2023-03-26T06:22:04;98097.59;;;6.69;100.00
30554;BME280;17335;50.720;7.452;2023-03-26T06:24:31;98089.28;;;6.72;100.00
30554;BME280;17335;50.720;7.452;2023-03-26T06:26:58;98088.56;;;6.70;100.00
30554;BME280;17335;50.720;7.452;2023-03-26T06:29:24;98083.63;;;6.75;100.00
30554;BME280;17335;50.720;7.452;2023-03-26T06:31:52;98074.78;;;6.75;100.00
30554;BME280;17335;50.720;7.452;2023-03-26T06:34:18;98077.03;;;6.80;100.00
30554;BME280;17335;50.720;7.452;2023-03-26T06:36:45;98085.84;;;6.80;100.00
30554;BME280;17335;50.720;7.452;2023-03-26T06:39:14;98070.75;;;6.89;100.00
30554;BME280;17335;50.720;7.452;2023-03-26T06:41:41;98075.84;;;6.82;100.00
30554;BME280;17335;50.720;7.452;2023-03-26T06:44:07;98074.34;;;6.80;100.00
30554;BME280;17335;50.720;7.452;2023-03-26T06:46:34;98065.72;;;6.86;100.00
30554;BME280;17335;50.720;7.452;2023-03-26T06:49:01;98068.25;;;6.87;100.00
30554;BME280;17335;50.720;7.452;2023-03-26T06:51:28;98066.09;;;6.91;100.00
30554;BME280;17335;50.720;7.452;2023-03-26T06:53:54;98064.53;;;6.98;100.00
30554;BME280;17335;50.720;7.452;2023-03-26T06:56:21;98062.84;;;6.97;100.00
30554;BME280;17335;50.720;7.452;2023-03-26T06:58:47;98061.84;;;6.98;100.00
30554;BME280;17335;50.720;7.452;2023-03-26T07:01:15;98056.91;;;7.03;100.00
30554;BME280;17335;50.720;7.452;2023-03-26T07:03:41;98054.53;;;7.00;100.00
30554;BME280;17335;50.720;7.452;2023-03-26T07:06:08;98053.75;;;7.08;100.00
30554;BME280;17335;50.720;7.452;2023-03-26T07:08:35;98046.25;;;7.11;100.00
30554;BME280;17335;50.720;7.452;2023-03-26T07:11:01;98042.63;;;7.12;100.00
30554;BME280;17335;50.720;7.452;2023-03-26T07:13:28;98036.31;;;7.13;100.00
30554;BME280;17335;50.720;7.452;2023-03-26T07:15:54;98039.75;;;7.32;100.00
30554;BME280;17335;50.720;7.452;2023-03-26T07:18:21;98028.41;;;7.30;100.00
30554;BME280;17335;50.720;7.452;2023-03-26T07:20:48;98032.75;;;7.31;100.00
30554;BME280;17335;50.720;7.452;2023-03-26T07:23:14;98027.94;;;7.35;100.00
30554;BME280;17335;50.720;7.452;2023-03-26T07:25:46;98021.78;;;7.42;100.00
30554;BME280;17335;50.720;7.452;2023-03-26T07:28:45;98020.28;;;7.40;100.00
30554;BME280;17335;50.720;7.452;2023-03-26T07:37:04;98012.16;;;7.49;100.00
30554;BME280;17335;50.720;7.452;2023-03-26T07:47:36;97997.47;;;7.45;100.00
30554;BME280;17335;50.720;7.452;2023-03-26T07:50:05;97998.94;;;7.40;100.00
30554;BME280;17335;50.720;7.452;2023-03-26T07:52:32;97993.75;;;7.38;100.00
30554;BME280;17335;50.720;7.452;2023-03-26T07:54:59;97990.78;;;7.41;100.00
30554;BME280;17335;50.720;7.452;2023-03-26T08:00:21;97983.00;;;7.30;100.00
30554;BME280;17335;50.720;7.452;2023-03-26T08:03:02;97977.06;;;7.36;100.00
30554;BME280;17335;50.720;7.452;2023-03-26T08:05:43;97973.16;;;7.30;100.00
30554;BME280;17335;50.720;7.452;2023-03-26T08:11:11;97968.91;;;7.38;100.00
30554;BME280;17335;50.720;7.452;2023-03-26T08:16:49;97957.00;;;7.32;100.00
30554;BME280;17335;50.720;7.452;2023-03-26T08:21:55;97950.53;;;7.35;100.00
30554;BME280;17335;50.720;7.452;2023-03-26T08:24:30;97951.28;;;7.27;100.00
30554;BME280;17335;50.720;7.452;2023-03-26T08:29:59;97948.78;;;7.25;100.00
30554;BME280;17335;50.720;7.452;2023-03-26T08:32:28;97948.69;;;7.35;100.00
30554;BME280;17335;50.720;7.452;2023-03-26T08:34:54;97952.66;;;7.31;100.00
30554;BME280;17335;50.720;7.452;2023-03-26T08:37:22;97944.91;;;7.20;100.00
30554;BME280;17335;50.720;7.452;2023-03-26T08:39:49;97945.97;;;7.27;100.00
30554;BME280;17335;50.720;7.452;2023-03-26T08:45:20;97941.50;;;7.36;100.00
30554;BME280;17335;50.720;7.452;2023-03-26T08:48:18;97940.00;;;7.33;100.00
30554;BME280;17335;50.720;7.452;2023-03-26T08:54:11;97927.31;;;7.35;100.00
30554;BME280;17335;50.720;7.452;2023-03-26T08:59:45;97924.38;;;7.46;100.00
30554;BME280;17335;50.720;7.452;2023-03-26T09:08:19;97909.59;;;7.26;100.00
30554;BME280;17335;50.720;7.452;2023-03-26T09:30:46;97874.31;;;6.80;100.00
30554;BME280;17335;50.720;7.452;2023-03-26T09:36:20;97873.41;;;6.97;100.00
30554;BME280;17335;50.720;7.452;2023-03-26T09:38:52;97867.03;;;6.90;100.00
30554;BME280;17335;50.720;7.452;2023-03-26T10:00:25;97844.38;;;7.79;100.00
30554;BME280;17335;50.720;7.452;2023-03-26T10:05:49;97833.66;;;7.71;100.00
30554;BME280;17335;50.720;7.452;2023-03-26T10:23:01;97805.47;;;8.51;100.00
30554;BME280;17335;50.720;7.452;2023-03-26T10:36:30;97770.13;;;8.80;100.00
30554;BME280;17335;50.720;7.452;2023-03-26T10:42:18;97772.59;;;8.98;100.00
30554;BME280;17335;50.720;7.452;2023-03-26T10:44:58;97769.59;;;9.01;100.00
30554;BME280;17335;50.720;7.452;2023-03-26T10:47:55;97774.66;;;8.88;100.00
30554;BME280;17335;50.720;7.452;2023-03-26T10:50:44;97764.63;;;8.81;100.00
30554;BME280;17335;50.720;7.452;2023-03-26T10:56:25;97770.53;;;8.69;100.00
30554;BME280;17335;50.720;7.452;2023-03-26T10:58:54;97764.22;;;8.45;100.00
30554;BME280;17335;50.720;7.452;2023-03-26T11:01:39;97764.19;;;8.61;100.00
30554;BME280;17335;50.720;7.452;2023-03-26T11:07:15;97769.16;;;8.73;100.00
30554;BME280;17335;50.720;7.452;2023-03-26T11:09:59;97764.13;;;8.78;100.00
30554;BME280;17335;50.720;7.452;2023-03-26T11:12:55;97763.78;;;8.81;100.00
30554;BME280;17335;50.720;7.452;2023-03-26T11:15:37;97758.88;;;8.53;100.00
30554;BME280;17335;50.720;7.452;2023-03-26T11:20:48;97754.81;;;8.57;100.00
30554;BME280;17335;50.720;7.452;2023-03-26T11:26:04;97754.41;;;8.85;100.00
30554;BME280;17335;50.720;7.452;2023-03-26T11:31:36;97747.69;;;8.97;100.00
30554;BME280;17335;50.720;7.452;2023-03-26T11:34:11;97737.59;;;9.08;100.00
30554;BME280;17335;50.720;7.452;2023-03-26T11:36:43;97744.00;;;9.30;100.00
30554;BME280;17335;50.720;7.452;2023-03-26T11:39:23;97742.09;;;9.38;100.00
30554;BME280;17335;50.720;7.452;2023-03-26T11:42:02;97732.06;;;9.41;100.00
30554;BME280;17335;50.720;7.452;2023-03-26T11:44:36;97722.00;;;9.43;100.00
30554;BME280;17335;50.720;7.452;2023-03-26T11:47:08;97704.13;;;9.35;100.00
30554;BME280;17335;50.720;7.452;2023-03-26T11:49:36;97716.69;;;9.34;100.00
30554;BME280;17335;50.720;7.452;2023-03-26T11:52:03;97717.22;;;9.30;100.00
30554;BME280;17335;50.720;7.452;2023-03-26T11:54:30;97711.47;;;9.41;100.00
30554;BME280;17335;50.720;7.452;2023-03-26T11:57:11;97715.13;;;9.17;100.00
30554;BME280;17335;50.720;7.452;2023-03-26T11:59:50;97717.09;;;9.23;100.00
30554;BME280;17335;50.720;7.452;2023-03-26T12:04:51;97712.44;;;9.17;100.00
30554;BME280;17335;50.720;7.452;2023-03-26T12:07:32;97701.78;;;9.09;100.00
30554;BME280;17335;50.720;7.452;2023-03-26T12:12:46;97698.66;;;8.97;100.00
30554;BME280;17335;50.720;7.452;2023-03-26T12:15:14;97708.50;;;9.05;100.00
30554;BME280;17335;50.720;7.452;2023-03-26T12:17:41;97708.53;;;8.96;100.00
30554;BME280;17335;50.720;7.452;2023-03-26T12:20:41;97716.44;;;8.90;100.00
30554;BME280;17335;50.720;7.452;2023-03-26T12:23:33;97706.94;;;8.79;100.00
30554;BME280;17335;50.720;7.452;2023-03-26T12:26:14;97718.50;;;8.71;100.00
30554;BME280;17335;50.720;7.452;2023-03-26T12:28:46;97728.09;;;8.57;100.00
30554;BME280;17335;50.720;7.452;2023-03-26T12:31:13;97722.94;;;8.48;100.00
30554;BME280;17335;50.720;7.452;2023-03-26T12:33:51;97733.47;;;8.33;100.00
30554;BME280;17335;50.720;7.452;2023-03-26T12:36:31;97741.81;;;8.30;100.00
30554;BME280;17335;50.720;7.452;2023-03-26T12:38:58;97739.84;;;8.07;100.00
30554;BME280;17335;50.720;7.452;2023-03-26T12:41:54;97740.19;;;7.96;100.00
30554;BME280;17335;50.720;7.452;2023-03-26T12:44:44;97738.84;;;7.83;100.00
30554;BME280;17335;50.720;7.452;2023-03-26T12:47:32;97734.69;;;7.81;100.00
30554;BME280;17335;50.720;7.452;2023-03-26T12:50:22;97731.00;;;7.82;100.00
30554;BME280;17335;50.720;7.452;2023-03-26T12:53:07;97729.50;;;7.79;100.00
30554;BME280;17335;50.720;7.452;2023-03-26T12:56:00;97733.16;;;7.78;100.00
30554;BME280;17335;50.720;7.452;2023-03-26T12:58:48;97732.84;;;7.89;100.00
30554;BME280;17335;50.720;7.452;2023-03-26T13:06:49;97735.84;;;8.03;100.00
30554;BME280;17335;50.720;7.452;2023-03-26T13:09:36;97733.00;;;8.13;100.00
30554;BME280;17335;50.720;7.452;2023-03-26T13:12:39;97744.66;;;8.20;100.00
30554;BME280;17335;50.720;7.452;2023-03-26T13:18:23;97743.50;;;8.22;100.00
30554;BME280;17335;50.720;7.452;2023-03-26T13:23:40;97740.31;;;8.43;100.00
30554;BME280;17335;50.720;7.452;2023-03-26T13:29:19;97742.44;;;8.64;100.00
30554;BME280;17335;50.720;7.452;2023-03-26T13:37:06;97732.75;;;8.72;100.00
30554;BME280;17335;50.720;7.452;2023-03-26T13:47:45;97721.28;;;8.94;100.00
30554;BME280;17335;50.720;7.452;2023-03-26T13:50:24;97723.19;;;9.09;100.00
30554;BME280;17335;50.720;7.452;2023-03-26T13:52:57;97733.84;;;9.25;100.00
30554;BME280;17335;50.720;7.452;2023-03-26T13:55:28;97730.47;;;9.23;100.00
30554;BME280;17335;50.720;7.452;2023-03-26T13:58:05;97731.31;;;9.24;100.00
30554;BME280;17335;50.720;7.452;2023-03-26T14:00:57;97727.94;;;9.30;100.00
30554;BME280;17335;50.720;7.452;2023-03-26T14:17:16;97732.94;;;8.54;100.00
30554;BME280;17335;50.720;7.452;2023-03-26T14:20:07;97744.50;;;8.46;100.00
30554;BME280;17335;50.720;7.452;2023-03-26T14:25:41;97742.47;;;8.40;100.00
30554;BME280;17335;50.720;7.452;2023-03-26T14:31:25;97745.97;;;8.57;100.00
30554;BME280;17335;50.720;7.452;2023-03-26T14:34:16;97740.22;;;8.76;100.00
30554;BME280;17335;50.720;7.452;2023-03-26T14:53:41;97747.81;;;8.56;100.00
30554;BME280;17335;50.720;7.452;2023-03-26T14:56:32;97755.47;;;8.59;100.00
30554;BME280;17335;50.720;7.452;2023-03-26T14:59:28;97759.19;;;8.50;100.00
30554;BME280;17335;50.720;7.452;2023-03-26T15:37:45;97794.94;;;8.57;100.00
30554;BME280;17335;50.720;7.452;2023-03-26T15:43:14;97809.84;;;8.52;100.00
30554;BME280;17335;50.720;7.452;2023-03-26T15:45:49;97812.19;;;8.55;100.00
30554;BME280;17335;50.720;7.452;2023-03-26T15:51:44;97814.84;;;8.47;100.00
30554;BME280;17335;50.720;7.452;2023-03-26T15:54:28;97819.38;;;8.46;100.00
30554;BME280;17335;50.720;7.452;2023-03-26T15:59:45;97828.53;;;8.35;100.00
30554;BME280;17335;50.720;7.452;2023-03-26T16:05:23;97831.88;;;8.13;100.00
30554;BME280;17335;50.720;7.452;2023-03-26T16:08:18;97835.72;;;8.10;100.00
30554;BME280;17335;50.720;7.452;2023-03-26T16:10:56;97843.41;;;8.05;100.00
30554;BME280;17335;50.720;7.452;2023-03-26T16:18:39;97859.59;;;7.95;100.00
30554;BME280;17335;50.720;7.452;2023-03-26T16:29:20;97873.78;;;7.87;100.00
30554;BME280;17335;50.720;7.452;2023-03-26T16:43:11;97890.69;;;7.54;100.00
30554;BME280;17335;50.720;7.452;2023-03-26T16:52:42;97900.00;;;7.41;100.00
30554;BME280;17335;50.720;7.452;2023-03-26T16:57:27;97911.41;;;7.51;100.00
30554;BME280;17335;50.720;7.452;2023-03-26T17:02:59;97918.22;;;7.54;100.00
30554;BME280;17335;50.720;7.452;2023-03-26T17:05:42;97924.66;;;7.35;100.00
30554;BME280;17335;50.720;7.452;2023-03-26T17:11:18;97936.59;;;7.23;100.00
30554;BME280;17335;50.720;7.452;2023-03-26T17:19:32;97949.84;;;7.06;100.00
30554;BME280;17335;50.720;7.452;2023-03-26T17:27:46;97964.50;;;7.02;100.00
30554;BME280;17335;50.720;7.452;2023-03-26T17:33:30;97992.84;;;7.03;100.00
30554;BME280;17335;50.720;7.452;2023-03-26T17:41:47;98002.44;;;6.96;100.00
30554;BME280;17335;50.720;7.452;2023-03-26T17:44:21;98002.81;;;7.01;100.00
30554;BME280;17335;50.720;7.452;2023-03-26T17:46:55;98014.81;;;6.97;100.00
30554;BME280;17335;50.720;7.452;2023-03-26T17:49:27;98023.13;;;6.94;100.00
30554;BME280;17335;50.720;7.452;2023-03-26T17:52:14;98036.38;;;6.86;100.00
30554;BME280;17335;50.720;7.452;2023-03-26T17:54:45;98031.00;;;6.78;100.00
30554;BME280;17335;50.720;7.452;2023-03-26T17:57:21;98041.59;;;6.69;100.00
30554;BME280;17335;50.720;7.452;2023-03-26T17:59:55;98044.69;;;6.65;100.00
30554;BME280;17335;50.720;7.452;2023-03-26T18:02:35;98053.91;;;6.52;100.00
30554;BME280;17335;50.720;7.452;2023-03-26T18:05:08;98049.56;;;6.51;100.00
30554;BME280;17335;50.720;7.452;2023-03-26T18:13:11;98078.81;;;6.43;100.00
30554;BME280;17335;50.720;7.452;2023-03-26T18:15:50;98078.50;;;6.46;100.00
30554;BME280;17335;50.720;7.452;2023-03-26T18:18:31;98091.34;;;6.33;100.00
30554;BME280;17335;50.720;7.452;2023-03-26T18:21:03;98094.69;;;6.35;100.00
30554;BME280;17335;50.720;7.452;2023-03-26T18:23:36;98100.72;;;6.37;100.00
30554;BME280;17335;50.720;7.452;2023-03-26T18:26:12;98102.25;;;6.40;100.00
30554;BME280;17335;50.720;7.452;2023-03-26T18:28:44;98111.91;;;6.41;100.00
30554;BME280;17335;50.720;7.452;2023-03-26T18:31:24;98121.34;;;6.35;100.00
30554;BME280;17335;50.720;7.452;2023-03-26T18:34:04;98128.06;;;6.39;100.00
30554;BME280;17335;50.720;7.452;2023-03-26T18:36:31;98127.41;;;6.27;100.00
30554;BME280;17335;50.720;7.452;2023-03-26T18:38:58;98133.47;;;6.29;100.00
30554;BME280;17335;50.720;7.452;2023-03-26T18:41:32;98137.34;;;6.35;100.00
30554;BME280;17335;50.720;7.452;2023-03-26T18:44:01;98146.00;;;6.47;100.00
30554;BME280;17335;50.720;7.452;2023-03-26T18:46:31;98142.31;;;6.48;100.00
30554;BME280;17335;50.720;7.452;2023-03-26T18:48:59;98151.03;;;6.50;100.00
30554;BME280;17335;50.720;7.452;2023-03-26T18:51:26;98150.63;;;6.45;100.00
30554;BME280;17335;50.720;7.452;2023-03-26T18:53:58;98153.69;;;6.50;100.00
30554;BME280;17335;50.720;7.452;2023-03-26T18:56:27;98153.31;;;6.45;100.00
30554;BME280;17335;50.720;7.452;2023-03-26T18:58:59;98170.66;;;6.49;100.00
30554;BME280;17335;50.720;7.452;2023-03-26T19:01:28;98160.00;;;6.49;100.00